Time;durP1;ratioP1;P1;durP2;ratioP2;P2;SDS_P1;SDS_P2;PMS_P1;PMS_P2;Temp;Humidity;BMP_temperature;BMP_pressure;BME280_temperature;BME280_humidity;BME280_pressure;Samples;Min_cycle;Max_cycle;Signal;HPM_P1;HPM_P2
2023/03/17 00:00:57;;;;;;;;;;;;;;;27.31;36.73;93901.06;5033263;28;9538;-54
2023/03/17 00:03:30;;;;;;;;;;;;;;;27.33;36.38;93900.50;5048257;28;9408;-54
2023/03/17 00:06:15;;;;;;;;;;;;;;;27.32;36.78;93897.00;5045888;28;9081;-54
2023/03/17 00:08:57;;;;;;;;;;;;;;;27.34;36.77;93894.44;5033983;28;9004;-54
2023/03/17 00:11:36;;;;;;;;;;;;;;;27.31;36.85;93889.25;5042522;28;8740;-54
2023/03/17 00:14:04;;;;;;;;;;;;;;;27.32;36.33;93896.25;5050954;28;9306;-54
2023/03/17 00:17:01;;;;;;;;;;;;;;;27.31;36.64;93903.81;5051439;28;7020;-54
2023/03/17 00:19:34;;;;;;;;;;;;;;;27.31;37.03;93898.28;5008016;28;9050;-54
2023/03/17 00:22:04;;;;;;;;;;;;;;;27.29;36.85;93900.84;5010882;28;9161;-54
2023/03/17 00:24:32;;;;;;;;;;;;;;;27.31;36.86;93897.53;5016257;28;9399;-54
2023/03/17 00:26:58;;;;;;;;;;;;;;;27.31;36.75;93903.06;5008188;28;7269;-54
2023/03/17 00:29:25;;;;;;;;;;;;;;;27.31;37.11;93897.53;5020420;28;9662;-54
2023/03/17 00:31:56;;;;;;;;;;;;;;;27.30;36.14;93891.28;5002456;28;9155;-55
2023/03/17 00:34:26;;;;;;;;;;;;;;;27.28;36.62;93888.31;5003793;28;7013;-54
2023/03/17 00:36:57;;;;;;;;;;;;;;;27.28;36.61;93891.06;5005320;28;9325;-54
2023/03/17 00:39:24;;;;;;;;;;;;;;;27.31;36.85;93898.28;5009120;28;9060;-54
2023/03/17 00:41:51;;;;;;;;;;;;;;;27.27;36.58;93886.84;4994398;28;7194;-54
2023/03/17 00:44:17;;;;;;;;;;;;;;;27.30;36.78;93893.28;5006771;28;7423;-54
2023/03/17 00:46:47;;;;;;;;;;;;;;;27.28;37.08;93904.88;5003019;28;7027;-54
2023/03/17 00:49:22;;;;;;;;;;;;;;;27.26;36.42;93890.84;5021400;28;7162;-54
2023/03/17 00:51:52;;;;;;;;;;;;;;;27.24;36.96;93892.66;5003563;28;8917;-54
2023/03/17 00:54:20;;;;;;;;;;;;;;;27.21;37.13;93893.75;5002366;28;7264;-54
2023/03/17 00:56:49;;;;;;;;;;;;;;;27.21;36.85;93893.75;5033031;28;9085;-54
2023/03/17 00:59:38;;;;;;;;;;;;;;;27.20;37.00;93898.53;5039697;28;7493;-54
2023/03/17 01:02:10;;;;;;;;;;;;;;;27.19;36.94;93901.78;5036805;28;7064;-54
2023/03/17 01:04:44;;;;;;;;;;;;;;;27.17;37.34;93894.06;5043244;28;7328;-54
2023/03/17 01:07:12;;;;;;;;;;;;;;;27.18;37.03;93895.56;5040100;28;7290;-54
2023/03/17 01:09:40;;;;;;;;;;;;;;;27.17;37.42;93888.53;5037900;28;7123;-54
2023/03/17 01:12:12;;;;;;;;;;;;;;;27.17;36.95;93887.78;5043259;28;7090;-54
2023/03/17 01:14:39;;;;;;;;;;;;;;;27.15;37.20;93879.28;5034606;28;9078;-54
2023/03/17 01:17:14;;;;;;;;;;;;;;;27.14;37.05;93867.53;5059335;28;8955;-54
2023/03/17 01:19:43;;;;;;;;;;;;;;;27.15;37.13;93868.25;5044002;28;9488;-54
2023/03/17 01:22:09;;;;;;;;;;;;;;;27.13;36.77;93863.28;5055784;28;7148;-54
2023/03/17 01:24:36;;;;;;;;;;;;;;;27.13;37.34;93851.47;5051227;28;7508;-54
2023/03/17 01:27:03;;;;;;;;;;;;;;;27.16;37.10;93856.69;5044799;28;9052;-54
2023/03/17 01:29:33;;;;;;;;;;;;;;;27.17;37.37;93855.41;5041200;28;9748;-54
2023/03/17 01:32:15;;;;;;;;;;;;;;;27.15;36.86;93857.97;5059228;28;8990;-54
2023/03/17 01:34:45;;;;;;;;;;;;;;;27.15;36.85;93857.97;5057256;28;7147;-54
2023/03/17 01:37:27;;;;;;;;;;;;;;;27.16;36.62;93847.66;5044417;28;8511;-54
2023/03/17 01:40:16;;;;;;;;;;;;;;;27.17;36.65;93854.66;5045576;28;7026;-54
2023/03/17 01:46:29;;;;;;;;;;;;;;;27.12;36.47;93853.50;5046905;28;7105;-54
2023/03/17 01:49:04;;;;;;;;;;;;;;;27.12;37.30;93861.78;5052019;28;8873;-54
2023/03/17 01:51:36;;;;;;;;;;;;;;;27.11;37.36;93854.78;5034461;28;9505;-54
2023/03/17 01:54:29;;;;;;;;;;;;;;;27.12;36.99;93855.53;5036964;28;7259;-54
2023/03/17 01:57:33;;;;;;;;;;;;;;;27.14;36.73;93845.44;5044450;28;9161;-54
2023/03/17 02:00:31;;;;;;;;;;;;;;;27.15;37.10;93846.16;5051969;28;7984;-54
2023/03/17 02:03:04;;;;;;;;;;;;;;;27.11;37.11;93840.22;5065956;28;9331;-54
2023/03/17 02:05:32;;;;;;;;;;;;;;;27.12;36.78;93842.44;5045474;28;9395;-54
2023/03/17 02:07:59;;;;;;;;;;;;;;;27.11;36.89;93835.47;5051222;28;7698;-54
2023/03/17 02:10:32;;;;;;;;;;;;;;;27.12;36.83;93842.44;5057174;28;8658;-54
2023/03/17 02:13:04;;;;;;;;;;;;;;;27.13;37.05;93854.25;5056425;28;7329;-54
2023/03/17 02:15:49;;;;;;;;;;;;;;;27.12;37.28;93853.50;5066552;28;8214;-54
2023/03/17 02:18:25;;;;;;;;;;;;;;;27.13;36.88;93848.72;5050776;28;7138;-54
2023/03/17 02:21:39;;;;;;;;;;;;;;;27.14;36.93;93856.50;5042637;28;7054;-54
2023/03/17 02:24:27;;;;;;;;;;;;;;;27.12;36.91;93852.78;5047673;28;6856;-54
2023/03/17 02:27:45;;;;;;;;;;;;;;;27.10;36.76;93861.56;5037748;28;9096;-54
2023/03/17 02:30:23;;;;;;;;;;;;;;;27.10;36.84;93861.56;5031948;28;8753;-54
2023/03/17 02:32:57;;;;;;;;;;;;;;;27.08;36.64;93846.84;5035274;28;7294;-54
2023/03/17 02:35:24;;;;;;;;;;;;;;;27.09;36.68;93849.06;5033899;28;8643;-54
2023/03/17 02:38:00;;;;;;;;;;;;;;;27.11;37.13;93845.75;5039137;28;9556;-54
2023/03/17 02:40:33;;;;;;;;;;;;;;;27.11;36.78;93840.97;5027375;28;7221;-54
2023/03/17 02:43:16;;;;;;;;;;;;;;;27.09;36.97;93840.78;5026457;28;7057;-54
2023/03/17 02:45:42;;;;;;;;;;;;;;;27.07;36.83;93843.31;5033741;28;9365;-54
2023/03/17 02:48:32;;;;;;;;;;;;;;;27.08;36.82;93846.84;5045571;28;7199;-54
2023/03/17 02:50:58;;;;;;;;;;;;;;;27.06;36.84;93850.09;5030955;28;8994;-54
2023/03/17 02:53:24;;;;;;;;;;;;;;;27.06;36.60;93844.59;5038758;28;8968;-54
2023/03/17 02:55:51;;;;;;;;;;;;;;;27.05;36.86;93845.13;5016138;28;8548;-54
2023/03/17 02:58:17;;;;;;;;;;;;;;;27.03;36.62;93837.41;5035927;28;7142;-54
2023/03/17 03:00:47;;;;;;;;;;;;;;;27.02;36.94;93833.13;5014487;28;8677;-54
2023/03/17 03:03:13;;;;;;;;;;;;;;;27.04;37.08;93830.59;5029702;28;9037;-54
2023/03/17 03:05:40;;;;;;;;;;;;;;;27.04;36.70;93829.84;5013944;28;9122;-54
2023/03/17 03:08:06;;;;;;;;;;;;;;;27.00;36.78;93830.16;5047514;28;8783;-54
2023/03/17 03:10:32;;;;;;;;;;;;;;;27.03;36.75;93834.63;5038835;28;8985;-54
2023/03/17 03:12:58;;;;;;;;;;;;;;;27.03;36.65;93833.88;5030685;28;7276;-54
2023/03/17 03:15:24;;;;;;;;;;;;;;;27.03;36.58;93828.38;5049769;28;7360;-54
2023/03/17 03:17:50;;;;;;;;;;;;;;;27.03;37.26;93831.88;5042553;28;7473;-54
2023/03/17 03:20:19;;;;;;;;;;;;;;;27.01;36.26;93831.66;5045825;28;7197;-54
2023/03/17 03:22:49;;;;;;;;;;;;;;;27.04;36.55;93838.13;5045509;28;7280;-54
2023/03/17 03:25:17;;;;;;;;;;;;;;;27.04;36.86;93836.09;5049094;28;7023;-54
2023/03/17 03:27:43;;;;;;;;;;;;;;;27.04;36.66;93849.91;5048406;28;7144;-54
2023/03/17 03:30:10;;;;;;;;;;;;;;;27.02;36.45;93838.66;5047254;28;9433;-54
2023/03/17 03:32:36;;;;;;;;;;;;;;;27.04;36.49;93846.41;5041328;28;7111;-54
2023/03/17 03:35:03;;;;;;;;;;;;;;;27.02;36.56;93849.69;5050079;28;8993;-54
2023/03/17 03:37:31;;;;;;;;;;;;;;;27.01;36.84;93853.00;5042826;28;7136;-54
2023/03/17 03:40:03;;;;;;;;;;;;;;;27.00;36.72;93854.25;5057054;28;7040;-54
2023/03/17 03:42:45;;;;;;;;;;;;;;;27.02;36.56;93855.22;5038444;28;7601;-54
2023/03/17 03:45:17;;;;;;;;;;;;;;;27.03;36.26;93853.97;5052113;28;8204;-54
2023/03/17 03:47:44;;;;;;;;;;;;;;;27.03;36.46;93867.00;5064109;28;7394;-54
2023/03/17 03:50:13;;;;;;;;;;;;;;;27.00;36.76;93857.78;5035403;28;7134;-56
2023/03/17 03:52:46;;;;;;;;;;;;;;;27.01;36.50;93853.75;5052804;28;7030;-56
2023/03/17 03:55:18;;;;;;;;;;;;;;;27.02;36.60;93860.00;5047202;28;7233;-56
2023/03/17 03:57:51;;;;;;;;;;;;;;;27.01;36.19;93858.53;5057404;28;7162;-56
2023/03/17 04:00:49;;;;;;;;;;;;;;;26.98;36.17;93848.53;5044998;28;7247;-56
2023/03/17 04:03:15;;;;;;;;;;;;;;;26.99;36.44;93850.03;4981086;28;9410;-56
2023/03/17 04:05:42;;;;;;;;;;;;;;;26.98;36.50;93848.53;4974853;28;7196;-56
2023/03/17 04:08:18;;;;;;;;;;;;;;;26.98;36.46;93849.28;4991908;28;7264;-56
2023/03/17 04:10:58;;;;;;;;;;;;;;;26.96;36.37;93846.31;4992387;28;7174;-56
2023/03/17 04:13:34;;;;;;;;;;;;;;;26.96;36.66;93857.34;4984116;28;7514;-56
2023/03/17 04:16:01;;;;;;;;;;;;;;;26.96;36.69;93859.38;4989561;28;7036;-56
2023/03/17 04:18:28;;;;;;;;;;;;;;;26.96;36.44;93849.06;4997867;28;7171;-56
2023/03/17 04:20:56;;;;;;;;;;;;;;;26.95;37.15;93836.53;4984651;28;7368;-56
2023/03/17 04:23:25;;;;;;;;;;;;;;;26.93;37.04;93841.84;4995867;28;6983;-56
2023/03/17 04:25:53;;;;;;;;;;;;;;;26.94;36.96;93840.59;5001067;28;9107;-56
2023/03/17 04:28:21;;;;;;;;;;;;;;;26.91;36.61;93833.38;4992672;28;7576;-56
2023/03/17 04:30:50;;;;;;;;;;;;;;;26.92;36.68;93843.13;4977190;28;8763;-56
2023/03/17 04:33:19;;;;;;;;;;;;;;;26.89;36.46;93842.19;4992237;28;7370;-56
2023/03/17 04:35:45;;;;;;;;;;;;;;;26.90;36.21;93843.66;4989208;28;7023;-56
2023/03/17 04:38:12;;;;;;;;;;;;;;;26.90;36.43;93851.22;4976782;28;7268;-56
2023/03/17 04:40:51;;;;;;;;;;;;;;;26.87;36.22;93849.50;5040857;28;7522;-56
2023/03/17 04:43:27;;;;;;;;;;;;;;;26.87;36.55;93844.00;5048604;28;7027;-56
2023/03/17 04:46:02;;;;;;;;;;;;;;;26.87;36.70;93836.47;5033361;28;9309;-56
2023/03/17 04:48:30;;;;;;;;;;;;;;;26.85;36.33;93835.50;5057630;28;7224;-56
2023/03/17 04:50:57;;;;;;;;;;;;;;;26.85;36.61;93836.25;5048942;28;9353;-56
2023/03/17 04:53:24;;;;;;;;;;;;;;;26.85;36.26;93838.25;5042560;28;7040;-56
2023/03/17 04:55:57;;;;;;;;;;;;;;;26.85;36.74;93838.25;5039381;28;9433;-56
2023/03/17 04:58:25;;;;;;;;;;;;;;;26.86;36.80;93842.50;5059659;28;7125;-56
2023/03/17 05:00:52;;;;;;;;;;;;;;;26.84;36.08;93831.25;5043278;28;8961;-56
2023/03/17 05:03:18;;;;;;;;;;;;;;;26.82;36.34;93826.25;5050270;28;7426;-56
2023/03/17 05:05:47;;;;;;;;;;;;;;;26.82;36.61;93820.75;5048451;28;7114;-56
2023/03/17 05:08:15;;;;;;;;;;;;;;;26.81;36.38;93824.03;5060577;28;6993;-56
2023/03/17 05:10:44;;;;;;;;;;;;;;;26.82;36.83;93823.50;5046126;28;7276;-56
2023/03/17 05:13:10;;;;;;;;;;;;;;;26.81;37.10;93824.03;5037133;28;7213;-56
2023/03/17 05:15:37;;;;;;;;;;;;;;;26.81;36.37;93818.53;5036386;28;7245;-56
2023/03/17 05:18:05;;;;;;;;;;;;;;;26.79;36.66;93816.31;5058566;28;7243;-56
2023/03/17 05:20:32;;;;;;;;;;;;;;;26.80;36.47;93822.56;5056386;28;7293;-56
2023/03/17 05:23:07;;;;;;;;;;;;;;;26.76;36.29;93824.88;5040519;28;9014;-56
2023/03/17 05:25:34;;;;;;;;;;;;;;;26.71;36.79;93820.19;5051286;28;8990;-56
2023/03/17 05:28:00;;;;;;;;;;;;;;;26.73;36.39;93834.25;5040719;28;7223;-56
2023/03/17 05:30:29;;;;;;;;;;;;;;;26.72;37.26;93832.72;5048190;28;7245;-56
2023/03/17 05:32:55;;;;;;;;;;;;;;;26.72;36.98;93832.72;5039030;28;7024;-56
2023/03/17 05:35:21;;;;;;;;;;;;;;;26.70;36.90;93835.28;5036406;28;8807;-56
2023/03/17 05:37:56;;;;;;;;;;;;;;;26.71;36.89;93831.97;5048359;28;7705;-56
2023/03/17 05:40:31;;;;;;;;;;;;;;;26.63;36.71;93839.41;5035486;28;9380;-56
2023/03/17 05:43:16;;;;;;;;;;;;;;;26.67;36.76;93834.31;5046127;28;8606;-56
2023/03/17 05:45:46;;;;;;;;;;;;;;;26.68;36.53;93838.56;5050151;28;9012;-56
2023/03/17 05:48:12;;;;;;;;;;;;;;;26.64;36.63;93843.63;5042323;28;9576;-56
2023/03/17 05:50:43;;;;;;;;;;;;;;;26.60;36.97;93848.00;5034947;28;7278;-56
2023/03/17 05:53:11;;;;;;;;;;;;;;;26.54;36.87;93833.56;5040193;28;8751;-56
2023/03/17 05:55:41;;;;;;;;;;;;;;;26.54;37.07;93839.81;5068808;28;8717;-56
2023/03/17 05:58:08;;;;;;;;;;;;;;;26.59;37.15;93839.00;5048838;28;9117;-55
2023/03/17 06:00:36;;;;;;;;;;;;;;;26.65;36.97;93836.13;5048840;28;7084;-56
2023/03/17 06:03:10;;;;;;;;;;;;;;;26.64;37.63;93826.38;5050839;28;8707;-56
2023/03/17 06:05:37;;;;;;;;;;;;;;;26.68;37.10;93835.81;5052522;28;9083;-56
2023/03/17 06:08:10;;;;;;;;;;;;;;;26.67;36.92;93830.81;5049492;28;9078;-56
2023/03/17 06:10:40;;;;;;;;;;;;;;;26.69;37.50;93836.53;5055960;28;7691;-56
2023/03/17 06:13:43;;;;;;;;;;;;;;;26.72;36.94;93825.19;5043619;28;7208;-57
2023/03/17 06:16:27;;;;;;;;;;;;;;;26.71;37.25;93823.69;5012359;28;7516;-56
2023/03/17 06:18:53;;;;;;;;;;;;;;;26.72;37.15;93816.16;5007487;28;7128;-56
2023/03/17 06:21:20;;;;;;;;;;;;;;;26.72;37.25;93813.41;5006823;28;7080;-56
2023/03/17 06:23:48;;;;;;;;;;;;;;;26.73;36.86;93823.94;5001881;28;7859;-56
2023/03/17 06:26:44;;;;;;;;;;;;;;;26.74;36.71;93830.94;5004859;28;7361;-57
2023/03/17 06:29:12;;;;;;;;;;;;;;;26.68;36.73;93835.06;4954527;28;9594;-56
2023/03/17 06:31:42;;;;;;;;;;;;;;;26.65;37.44;93836.13;4972994;28;7682;-56
2023/03/17 06:34:09;;;;;;;;;;;;;;;26.69;36.80;93831.00;4973975;28;8995;-56
2023/03/17 06:36:48;;;;;;;;;;;;;;;26.72;37.48;93829.97;4961444;28;8032;-56
2023/03/17 06:39:16;;;;;;;;;;;;;;;26.68;36.88;93824.78;4969869;28;7285;-56
2023/03/17 06:41:52;;;;;;;;;;;;;;;26.67;36.85;93819.78;4973537;28;9193;-56
2023/03/17 06:44:18;;;;;;;;;;;;;;;26.74;36.34;93830.19;4963762;28;7037;-56
2023/03/17 06:46:55;;;;;;;;;;;;;;;26.76;36.68;93831.16;4958610;28;7248;-56
2023/03/17 06:49:21;;;;;;;;;;;;;;;26.75;36.24;93837.94;4976726;28;9317;-56
2023/03/17 06:51:47;;;;;;;;;;;;;;;26.74;36.23;93830.19;4992559;28;7592;-56
2023/03/17 06:54:30;;;;;;;;;;;;;;;26.75;36.37;93837.22;5007294;28;7019;-56
2023/03/17 06:56:56;;;;;;;;;;;;;;;26.77;35.89;93848.47;5007502;28;8997;-56
2023/03/17 06:59:22;;;;;;;;;;;;;;;26.77;36.52;93848.47;5002494;28;7459;-56
2023/03/17 07:01:50;;;;;;;;;;;;;;;26.74;36.48;93855.03;5008863;28;9448;-56
2023/03/17 07:04:27;;;;;;;;;;;;;;;26.75;36.64;93865.53;4992041;28;9199;-56
2023/03/17 07:06:53;;;;;;;;;;;;;;;26.77;36.61;93878.81;5045084;28;9233;-56
2023/03/17 07:09:19;;;;;;;;;;;;;;;26.79;36.82;93870.75;5061752;28;9176;-56
2023/03/17 07:11:46;;;;;;;;;;;;;;;26.78;36.13;93858.22;5043321;28;7022;-56
2023/03/17 07:14:12;;;;;;;;;;;;;;;26.76;36.84;93867.03;5062463;28;7052;-56
2023/03/17 07:16:39;;;;;;;;;;;;;;;26.75;36.16;93868.28;5047489;28;9324;-56
2023/03/17 07:19:06;;;;;;;;;;;;;;;26.78;36.90;93863.72;5044280;28;8954;-56
2023/03/17 07:21:32;;;;;;;;;;;;;;;26.75;36.86;93862.03;5042465;28;7143;-56
2023/03/17 07:24:05;;;;;;;;;;;;;;;26.77;36.97;93859.50;5048294;28;7275;-55
2023/03/17 07:26:34;;;;;;;;;;;;;;;26.75;36.56;93871.03;5049601;28;7128;-56
2023/03/17 07:29:10;;;;;;;;;;;;;;;26.76;37.10;93867.03;5043148;28;9140;-56
2023/03/17 07:32:09;;;;;;;;;;;;;;;26.74;35.68;93858.53;5057934;28;9047;-56
2023/03/17 07:34:39;;;;;;;;;;;;;;;26.78;37.04;93858.97;5014262;28;7109;-56
2023/03/17 07:37:06;;;;;;;;;;;;;;;26.75;36.99;93859.28;5010628;28;9846;-56
2023/03/17 07:39:46;;;;;;;;;;;;;;;26.79;37.05;93854.19;5011218;28;9446;-56
2023/03/17 07:42:27;;;;;;;;;;;;;;;26.77;36.93;93845.69;5021392;28;7602;-56
2023/03/17 07:45:04;;;;;;;;;;;;;;;26.79;37.61;93843.16;5008168;28;9313;-56
2023/03/17 07:48:07;;;;;;;;;;;;;;;26.80;37.55;93850.88;5014784;28;9586;-56
2023/03/17 07:50:49;;;;;;;;;;;;;;;26.78;37.57;93852.69;4979465;28;7245;-56
2023/03/17 07:53:51;;;;;;;;;;;;;;;26.81;37.26;93857.16;4987708;28;9005;-56
2023/03/17 07:56:19;;;;;;;;;;;;;;;26.82;37.81;93862.13;4963618;28;7127;-56
2023/03/17 07:59:17;;;;;;;;;;;;;;;26.80;37.30;93863.94;4989210;28;8727;-56
2023/03/17 08:01:56;;;;;;;;;;;;;;;26.78;37.13;93858.22;4943516;28;9022;-56
2023/03/17 08:04:23;;;;;;;;;;;;;;;26.78;36.98;93855.44;4951684;28;8633;-56
2023/03/17 08:06:50;;;;;;;;;;;;;;;26.78;37.47;93853.44;4932404;28;9035;-56
2023/03/17 08:09:15;;;;;;;;;;;;;;;26.81;37.49;93857.16;4942824;28;10049;-56
2023/03/17 08:11:43;;;;;;;;;;;;;;;26.82;37.27;93851.09;4929289;28;9380;-56
2023/03/17 08:14:36;;;;;;;;;;;;;;;26.84;37.60;93858.84;4925031;28;9246;-56
2023/03/17 08:17:03;;;;;;;;;;;;;;;26.84;37.13;93853.31;4935430;28;8725;-56
2023/03/17 08:19:39;;;;;;;;;;;;;;;26.82;37.13;93845.56;4936262;28;9423;-56
2023/03/17 08:22:16;;;;;;;;;;;;;;;26.85;37.11;93849.28;4950103;28;7040;-56
2023/03/17 08:24:44;;;;;;;;;;;;;;;26.85;36.81;93847.28;4929738;28;8745;-56
2023/03/17 08:27:10;;;;;;;;;;;;;;;26.87;37.10;93844.00;4966536;28;8646;-56
2023/03/17 08:29:37;;;;;;;;;;;;;;;26.90;37.28;93840.16;4992241;28;9051;-56
2023/03/17 08:32:13;;;;;;;;;;;;;;;26.90;36.72;93838.13;5008517;28;6951;-56
2023/03/17 08:35:00;;;;;;;;;;;;;;;26.89;37.56;93835.91;5005091;28;8792;-56
2023/03/17 08:37:26;;;;;;;;;;;;;;;26.87;37.35;93828.19;5016624;28;9001;-57
2023/03/17 08:40:16;;;;;;;;;;;;;;;26.92;37.29;93836.88;5046894;28;9005;-56
2023/03/17 08:42:47;;;;;;;;;;;;;;;26.89;37.40;93831.16;5041406;28;7188;-56
2023/03/17 08:45:17;;;;;;;;;;;;;;;26.93;37.75;93833.56;5044109;28;9646;-56
2023/03/17 08:47:46;;;;;;;;;;;;;;;26.93;37.51;93833.56;5063005;28;8979;-56
2023/03/17 08:50:19;;;;;;;;;;;;;;;26.92;37.44;93834.88;5037071;28;9021;-56
2023/03/17 08:52:47;;;;;;;;;;;;;;;26.92;37.29;93834.88;5044975;28;7205;-56
2023/03/17 08:55:15;;;;;;;;;;;;;;;26.93;37.38;93833.56;5043653;28;8679;-56
2023/03/17 08:57:44;;;;;;;;;;;;;;;26.92;37.30;93834.88;5048998;28;8391;-56
2023/03/17 09:00:19;;;;;;;;;;;;;;;26.92;37.58;93827.31;5055841;28;9147;-56
2023/03/17 09:02:45;;;;;;;;;;;;;;;26.93;37.78;93836.31;5040918;28;7017;-56
2023/03/17 09:05:14;;;;;;;;;;;;;;;26.92;38.09;93821.78;5047906;28;8965;-56
2023/03/17 09:07:49;;;;;;;;;;;;;;;26.93;37.63;93828.06;5036121;28;7038;-56
2023/03/17 09:10:25;;;;;;;;;;;;;;;26.92;37.59;93821.06;5051855;28;9056;-56
2023/03/17 09:12:53;;;;;;;;;;;;;;;26.89;37.31;93820.09;5043978;28;7035;-56
2023/03/17 09:15:28;;;;;;;;;;;;;;;26.88;37.57;93817.88;5050346;28;7267;-56
2023/03/17 09:17:55;;;;;;;;;;;;;;;26.92;37.56;93823.81;5045967;28;8716;-56
2023/03/17 09:20:25;;;;;;;;;;;;;;;26.92;38.15;93829.34;5048938;28;7304;-56
2023/03/17 09:22:55;;;;;;;;;;;;;;;26.92;37.79;93821.06;5055492;28;7206;-56
2023/03/17 09:25:21;;;;;;;;;;;;;;;26.89;38.20;93811.06;5049489;28;9126;-56
2023/03/17 09:28:13;;;;;;;;;;;;;;;26.94;38.28;93824.03;5054716;28;8693;-56
2023/03/17 09:30:43;;;;;;;;;;;;;;;26.97;37.28;93820.19;4978326;28;7291;-57
2023/03/17 09:33:15;;;;;;;;;;;;;;;26.99;38.15;93814.88;5014185;28;7215;-56
2023/03/17 09:35:43;;;;;;;;;;;;;;;26.98;38.06;93813.41;5001875;28;9503;-57
2023/03/17 09:38:11;;;;;;;;;;;;;;;26.92;38.76;93812.03;5005431;28;9404;-56
2023/03/17 09:41:13;;;;;;;;;;;;;;;26.95;37.88;93817.22;4989707;28;9501;-56
2023/03/17 09:44:05;;;;;;;;;;;;;;;26.98;38.30;93818.19;4992471;28;7232;-56
2023/03/17 09:46:41;;;;;;;;;;;;;;;26.99;38.05;93823.16;5002256;28;7410;-56
2023/03/17 09:49:19;;;;;;;;;;;;;;;26.99;38.50;93814.16;4998578;28;9080;-57
2023/03/17 09:51:46;;;;;;;;;;;;;;;26.99;38.50;93820.38;4997074;28;7348;-56
2023/03/17 09:54:36;;;;;;;;;;;;;;;27.00;37.80;93819.13;4996393;28;7803;-56
2023/03/17 09:57:35;;;;;;;;;;;;;;;27.01;38.19;93819.88;5000479;28;8536;-56
2023/03/17 10:00:28;;;;;;;;;;;;;;;27.00;37.99;93818.38;5007288;28;9035;-56
2023/03/17 10:03:11;;;;;;;;;;;;;;;27.00;38.22;93813.59;5005789;28;9302;-56
2023/03/17 10:05:38;;;;;;;;;;;;;;;27.02;38.38;93824.09;4996876;28;7369;-56
2023/03/17 10:08:22;;;;;;;;;;;;;;;27.01;37.94;93820.63;5032320;28;7052;-55
2023/03/17 10:11:44;;;;;;;;;;;;;;;27.00;37.72;93805.31;5052280;28;7266;-56
2023/03/17 10:14:26;;;;;;;;;;;;;;;26.97;38.01;93809.16;5000547;28;8700;-56
2023/03/17 10:17:18;;;;;;;;;;;;;;;26.95;37.92;93803.41;4995099;28;7946;-56
2023/03/17 10:20:16;;;;;;;;;;;;;;;27.00;38.06;93808.09;5004646;28;9333;-56
2023/03/17 10:23:04;;;;;;;;;;;;;;;27.00;38.52;93805.31;4996605;28;8909;-56
2023/03/17 10:25:36;;;;;;;;;;;;;;;27.00;37.88;93808.09;5000163;28;7369;-56
2023/03/17 10:28:28;;;;;;;;;;;;;;;27.02;38.29;93802.78;5000689;28;9035;-55
2023/03/17 10:31:20;;;;;;;;;;;;;;;27.04;37.24;93802.22;5011258;28;8767;-56
2023/03/17 10:33:51;;;;;;;;;;;;;;;27.02;37.97;93804.78;4998085;28;9122;-55
2023/03/17 10:36:33;;;;;;;;;;;;;;;27.02;37.41;93802.03;4993844;28;8777;-56
2023/03/17 10:39:16;;;;;;;;;;;;;;;27.04;37.60;93797.47;5013158;28;9133;-56
2023/03/17 10:42:20;;;;;;;;;;;;;;;27.08;37.74;93797.88;4995439;28;7296;-56
2023/03/17 10:45:26;;;;;;;;;;;;;;;27.10;37.57;93789.78;5018335;28;7160;-55
2023/03/17 10:48:01;;;;;;;;;;;;;;;27.03;38.31;93790.47;5053618;28;6863;-56
2023/03/17 10:50:44;;;;;;;;;;;;;;;27.05;38.24;93793.44;5060471;28;8711;-56
2023/03/17 10:53:28;;;;;;;;;;;;;;;27.11;37.59;93796.81;5048195;28;9047;-56
2023/03/17 10:56:25;;;;;;;;;;;;;;;27.15;38.04;93799.97;5055029;28;7028;-56
2023/03/17 10:59:31;;;;;;;;;;;;;;;27.19;38.42;93794.88;5059297;28;7367;-56
2023/03/17 11:02:30;;;;;;;;;;;;;;;27.23;38.06;93789.75;4993272;28;9108;-56
2023/03/17 11:05:08;;;;;;;;;;;;;;;27.24;38.31;93793.25;4957509;28;8907;-56
2023/03/17 11:07:39;;;;;;;;;;;;;;;27.27;38.13;93792.94;4970301;28;7218;-56
2023/03/17 11:10:23;;;;;;;;;;;;;;;27.28;37.78;93777.84;4969698;28;9320;-56
2023/03/17 11:13:00;;;;;;;;;;;;;;;27.30;38.23;93778.06;4966529;28;9459;-55
2023/03/17 11:16:03;;;;;;;;;;;;;;;27.31;38.35;93779.56;4957306;28;7461;-56
2023/03/17 11:19:03;;;;;;;;;;;;;;;27.32;38.54;93789.31;4900945;29;6975;-56
2023/03/17 11:21:46;;;;;;;;;;;;;;;27.34;38.54;93777.75;4821939;29;7223;-56
2023/03/17 11:24:41;;;;;;;;;;;;;;;27.34;38.93;93781.22;4820855;29;9707;-56
2023/03/17 11:27:13;;;;;;;;;;;;;;;27.32;39.69;93774.75;4818421;29;7023;-56
2023/03/17 11:29:51;;;;;;;;;;;;;;;27.33;38.88;93767.97;4822268;29;9064;-56
2023/03/17 11:32:42;;;;;;;;;;;;;;;27.36;39.13;93769.69;4819466;29;7035;-55
2023/03/17 11:36:02;;;;;;;;;;;;;;;27.36;39.12;93773.16;4820364;29;7509;-56
2023/03/17 11:39:04;;;;;;;;;;;;;;;27.36;39.25;93759.38;4811480;29;8611;-55
2023/03/17 11:41:43;;;;;;;;;;;;;;;27.36;39.28;93762.13;4825748;29;7011;-56
2023/03/17 11:44:34;;;;;;;;;;;;;;;27.39;39.18;93755.53;4860312;29;7215;-55
2023/03/17 11:47:15;;;;;;;;;;;;;;;27.40;38.87;93750.75;4858846;29;8955;-56
2023/03/17 11:50:02;;;;;;;;;;;;;;;27.40;38.82;93742.47;4863893;29;7134;-56
2023/03/17 11:53:06;;;;;;;;;;;;;;;27.43;38.58;93739.38;4858001;29;7611;-56
2023/03/17 11:55:47;;;;;;;;;;;;;;;27.47;38.39;93739.03;4901950;29;8777;-56
2023/03/17 11:58:55;;;;;;;;;;;;;;;27.47;38.17;93733.53;4960375;28;7583;-55
2023/03/17 12:01:33;;;;;;;;;;;;;;;27.46;37.61;93732.78;4963884;28;7358;-56
2023/03/17 12:04:42;;;;;;;;;;;;;;;27.47;37.03;93739.03;4976568;28;9187;-56
2023/03/17 12:07:40;;;;;;;;;;;;;;;27.42;36.96;93743.44;4992105;28;9025;-56
2023/03/17 12:10:21;;;;;;;;;;;;;;;27.46;37.02;93743.06;4975477;28;7244;-56
2023/03/17 12:13:06;;;;;;;;;;;;;;;27.44;36.99;93743.63;4965999;28;7064;-56
2023/03/17 12:15:46;;;;;;;;;;;;;;;27.45;36.93;93734.03;4982961;28;6997;-56
2023/03/17 12:18:53;;;;;;;;;;;;;;;27.49;37.03;93731.69;4985100;28;8194;-56
2023/03/17 12:21:35;;;;;;;;;;;;;;;27.49;37.20;93739.97;4986461;28;7301;-56
2023/03/17 12:24:17;;;;;;;;;;;;;;;27.49;37.34;93734.44;5008624;28;7583;-56
2023/03/17 12:27:08;;;;;;;;;;;;;;;27.50;36.98;93738.69;5001405;28;7323;-56
2023/03/17 12:29:56;;;;;;;;;;;;;;;27.51;37.22;93747.75;4991673;28;7219;-56
2023/03/17 12:32:35;;;;;;;;;;;;;;;27.47;37.32;93739.78;4984291;28;9605;-56
2023/03/17 12:35:30;;;;;;;;;;;;;;;27.45;36.92;93742.31;5001228;28;7252;-56
2023/03/17 12:38:08;;;;;;;;;;;;;;;27.44;37.50;93740.13;5024534;28;8511;-56
2023/03/17 12:40:38;;;;;;;;;;;;;;;27.47;37.26;93742.53;5039704;28;7312;-56
2023/03/17 12:43:34;;;;;;;;;;;;;;;27.43;37.56;93733.84;5042689;28;7213;-56
2023/03/17 12:46:48;;;;;;;;;;;;;;;27.44;37.41;93746.38;5060891;28;9017;-56
2023/03/17 12:49:46;;;;;;;;;;;;;;;27.45;37.45;93747.09;4984899;28;9002;-56
2023/03/17 12:52:46;;;;;;;;;;;;;;;27.44;37.25;93743.63;5015709;28;9041;-56
2023/03/17 12:55:16;;;;;;;;;;;;;;;27.37;37.82;93736.00;5010908;28;7096;-56
2023/03/17 12:58:21;;;;;;;;;;;;;;;27.39;37.99;93743.75;5011428;28;7003;-56
2023/03/17 13:01:28;;;;;;;;;;;;;;;27.40;37.71;93739.72;4951604;28;9053;-56
2023/03/17 13:04:23;;;;;;;;;;;;;;;27.37;37.81;93729.72;4951567;28;7242;-56
2023/03/17 13:07:22;;;;;;;;;;;;;;;27.37;37.74;93738.00;4922407;29;7017;-56
2023/03/17 13:10:40;;;;;;;;;;;;;;;27.33;37.65;93732.81;4855169;29;8129;-56
2023/03/17 13:13:36;;;;;;;;;;;;;;;27.36;37.88;93734.50;4834224;29;9263;-56
2023/03/17 13:16:40;;;;;;;;;;;;;;;27.37;37.92;93741.53;4824689;29;7049;-56
2023/03/17 13:19:31;;;;;;;;;;;;;;;27.37;37.69;93733.25;4828401;29;8973;-56
2023/03/17 13:22:03;;;;;;;;;;;;;;;27.42;37.78;93737.16;4875855;29;7137;-55
2023/03/17 13:24:46;;;;;;;;;;;;;;;27.45;37.47;93736.81;4875995;29;9140;-56
2023/03/17 13:27:32;;;;;;;;;;;;;;;27.49;37.58;93734.44;4881226;29;9270;-56
2023/03/17 13:30:21;;;;;;;;;;;;;;;27.52;37.26;93747.19;4870151;29;7154;-56
2023/03/17 13:33:16;;;;;;;;;;;;;;;27.58;37.20;93741.50;4900977;29;7264;-56
2023/03/17 13:36:04;;;;;;;;;;;;;;;27.56;37.55;93739.31;4924362;29;7102;-55
2023/03/17 13:39:08;;;;;;;;;;;;;;;27.57;37.02;93735.28;4907691;29;8647;-56
2023/03/17 13:42:09;;;;;;;;;;;;;;;27.58;37.09;93736.75;4913716;29;7033;-55
2023/03/17 13:45:20;;;;;;;;;;;;;;;27.59;37.55;93735.47;4928191;28;7031;-56
2023/03/17 13:47:49;;;;;;;;;;;;;;;27.61;37.22;93738.44;4909985;29;7336;-56
2023/03/17 13:50:31;;;;;;;;;;;;;;;27.64;37.46;93742.88;4976564;28;9013;-56
2023/03/17 13:53:10;;;;;;;;;;;;;;;27.66;37.38;93738.84;5001662;28;9156;-56
2023/03/17 13:56:20;;;;;;;;;;;;;;;27.67;36.60;93745.81;4993444;28;9007;-56